createdAt,value
2023-02-13T00:01:29.795Z,98.30
2023-02-13T00:03:58.514Z,98.70
2023-02-13T00:06:27.589Z,99.20
2023-02-13T00:08:56.198Z,98.90
2023-02-13T00:11:24.925Z,98.80
2023-02-13T00:13:53.572Z,98.90
2023-02-13T00:16:22.197Z,98.60
2023-02-13T00:18:50.900Z,98.60
2023-02-13T00:21:19.622Z,98.50
2023-02-13T00:23:48.234Z,98.60
2023-02-13T00:26:18.268Z,98.60
2023-02-13T00:28:47.784Z,98.70
2023-02-13T00:31:20.110Z,98.90
2023-02-13T00:33:49.060Z,99.30
2023-02-13T00:36:21.481Z,99.00
2023-02-13T00:38:50.498Z,99.20
2023-02-13T00:41:19.635Z,99.10
2023-02-13T00:43:49.306Z,99.20
2023-02-13T00:46:19.013Z,99.10
2023-02-13T00:48:48.019Z,99.20
2023-02-13T00:51:16.913Z,98.80
2023-02-13T00:53:46.446Z,98.70
2023-02-13T00:56:15.157Z,98.50
2023-02-13T00:58:43.888Z,98.20
2023-02-13T01:01:12.732Z,97.90
2023-02-13T01:03:42.042Z,97.80
2023-02-13T01:06:11.005Z,97.50
2023-02-13T01:08:41.764Z,97.40
2023-02-13T01:11:11.010Z,97.30
2023-02-13T01:13:39.794Z,97.20
2023-02-13T01:16:08.833Z,96.90
2023-02-13T01:18:37.580Z,96.70
2023-02-13T01:21:09.346Z,96.60
2023-02-13T01:23:40.167Z,96.60
2023-02-13T01:26:10.574Z,96.10
2023-02-13T01:28:39.369Z,96.20
2023-02-13T01:31:08.205Z,96.10
2023-02-13T01:33:37.169Z,96.10
2023-02-13T01:36:11.495Z,96.10
2023-02-13T01:38:51.292Z,96.10
2023-02-13T01:41:20.034Z,96.10
2023-02-13T01:43:55.538Z,96.00
2023-02-13T01:46:29.582Z,96.10
2023-02-13T01:49:04.489Z,95.90
2023-02-13T01:51:36.612Z,95.90
2023-02-13T01:54:14.608Z,95.70
2023-02-13T01:56:48.750Z,95.50
2023-02-13T01:59:22.990Z,95.50
2023-02-13T02:01:52.655Z,95.80
2023-02-13T02:04:26.187Z,95.40
2023-02-13T02:07:03.347Z,95.40
2023-02-13T02:09:36.494Z,95.10
2023-02-13T02:12:44.416Z,95.20
2023-02-13T02:15:13.500Z,95.00
2023-02-13T02:17:42.255Z,95.10
2023-02-13T02:20:50.374Z,94.70
2023-02-13T02:23:53.530Z,94.80
2023-02-13T02:26:27.280Z,94.60
2023-02-13T02:29:27.676Z,94.60
2023-02-13T02:32:30.717Z,94.30
2023-02-13T02:35:19.630Z,94.20
2023-02-13T02:38:09.412Z,94.00
2023-02-13T02:40:58.397Z,93.90
2023-02-13T02:43:36.536Z,93.80
2023-02-13T02:46:30.108Z,93.90
2023-02-13T02:49:26.849Z,94.00
2023-02-13T02:52:03.629Z,93.90
2023-02-13T02:54:58.599Z,94.10
2023-02-13T02:57:52.251Z,94.10
2023-02-13T03:00:44.469Z,93.40
2023-02-13T03:03:39.001Z,93.20
2023-02-13T03:22:18.798Z,91.70
2023-02-13T03:29:32.062Z,91.50
2023-02-13T03:32:26.335Z,91.50
2023-02-13T03:35:34.163Z,92.00
2023-02-13T03:38:09.792Z,91.30
2023-02-13T03:41:08.855Z,90.90
2023-02-13T03:43:49.542Z,90.90
2023-02-13T03:46:21.888Z,90.50
2023-02-13T03:51:40.576Z,90.30
2023-02-13T03:54:20.602Z,91.70
2023-02-13T03:57:12.184Z,91.30
2023-02-13T04:16:11.733Z,88.90
2023-02-13T04:18:41.397Z,90.20
2023-02-13T04:21:10.621Z,87.60
2023-02-13T04:23:40.424Z,87.20
2023-02-13T04:26:16.103Z,89.80
2023-02-13T04:28:45.046Z,86.30
2023-02-13T04:31:14.359Z,85.30
2023-02-13T04:33:43.947Z,87.50
2023-02-13T04:36:12.789Z,89.50
2023-02-13T04:38:41.778Z,85.20
2023-02-13T04:41:10.684Z,88.10
2023-02-13T04:43:40.269Z,83.70
2023-02-13T04:50:19.508Z,85.00
2023-02-13T04:52:49.001Z,88.50
2023-02-13T04:55:18.636Z,86.80
